createdAt,value
2023-03-13T00:01:30.036Z,10.30
2023-03-13T00:03:57.501Z,10.50
2023-03-13T00:06:32.315Z,10.40
2023-03-13T00:09:02.991Z,10.40
2023-03-13T00:11:30.379Z,10.40
2023-03-13T00:14:00.126Z,10.40
2023-03-13T00:16:28.537Z,10.40
2023-03-13T00:18:57.842Z,10.40
2023-03-13T00:21:28.342Z,10.30
2023-03-13T00:23:55.914Z,10.20
2023-03-13T00:26:25.912Z,10.20
2023-03-13T00:28:54.112Z,10.30
2023-03-13T00:31:28.017Z,10.40
2023-03-13T00:34:01.098Z,10.30
2023-03-13T00:36:34.852Z,10.40
2023-03-13T00:39:03.292Z,10.40
2023-03-13T00:41:32.894Z,10.40
2023-03-13T00:44:00.674Z,10.40
2023-03-13T00:46:29.825Z,10.50
2023-03-13T00:48:57.650Z,10.60
2023-03-13T00:51:27.162Z,10.60
2023-03-13T00:54:00.592Z,10.60
2023-03-13T00:56:29.107Z,10.50
2023-03-13T00:58:56.658Z,10.50
2023-03-13T01:01:31.117Z,10.60
2023-03-13T01:04:02.846Z,10.50
2023-03-13T01:06:33.095Z,10.50
2023-03-13T01:09:01.374Z,10.50
2023-03-13T01:11:32.146Z,10.40
2023-03-13T01:14:03.083Z,10.40
2023-03-13T01:16:33.203Z,10.40
2023-03-13T01:19:04.053Z,10.50
2023-03-13T01:21:31.809Z,10.60
2023-03-13T01:23:58.998Z,10.70
2023-03-13T01:26:27.277Z,10.80
2023-03-13T01:28:55.149Z,10.90
2023-03-13T01:31:23.862Z,10.80
2023-03-13T01:33:55.992Z,10.80
2023-03-13T01:36:23.711Z,10.80
2023-03-13T01:38:57.013Z,10.80
2023-03-13T01:41:25.822Z,10.90
2023-03-13T01:43:53.431Z,10.80
2023-03-13T01:46:29.273Z,10.70
2023-03-13T01:49:20.967Z,10.70
2023-03-13T01:52:02.294Z,10.70
2023-03-13T01:54:52.488Z,10.80
2023-03-13T01:57:29.058Z,10.90
2023-03-13T02:00:09.994Z,10.80
2023-03-13T02:02:39.075Z,10.80
2023-03-13T02:05:07.993Z,10.80
2023-03-13T02:07:43.695Z,10.90
2023-03-13T02:10:11.767Z,10.80
2023-03-13T02:12:40.943Z,10.90
2023-03-13T02:15:12.195Z,10.80
2023-03-13T02:17:41.095Z,10.80
2023-03-13T02:20:09.451Z,10.60
2023-03-13T02:23:25.453Z,10.40
2023-03-13T02:25:53.907Z,10.10
2023-03-13T02:28:33.453Z,10.00
2023-03-13T02:31:01.697Z,10.00
2023-03-13T02:33:34.712Z,10.00
2023-03-13T02:36:03.618Z,9.90
2023-03-13T02:38:34.811Z,9.80
2023-03-13T02:41:05.436Z,9.80
2023-03-13T02:43:38.791Z,9.90
2023-03-13T02:46:17.922Z,10.00
2023-03-13T02:48:55.145Z,10.00
2023-03-13T02:51:40.930Z,10.10
2023-03-13T02:54:15.345Z,10.10
2023-03-13T02:56:46.041Z,10.10
2023-03-13T02:59:13.223Z,10.00
2023-03-13T03:01:40.378Z,10.00
2023-03-13T03:04:07.518Z,9.90
2023-03-13T03:06:34.698Z,9.80
2023-03-13T03:09:01.996Z,9.80
2023-03-13T03:11:29.498Z,9.80
2023-03-13T03:13:56.570Z,9.80
2023-03-13T03:16:23.749Z,9.90
2023-03-13T03:18:50.868Z,9.90
2023-03-13T03:21:17.951Z,10.00
2023-03-13T03:23:45.082Z,10.00
2023-03-13T03:26:12.166Z,10.00
2023-03-13T03:28:39.279Z,10.20
2023-03-13T03:31:08.816Z,10.30
2023-03-13T03:33:36.277Z,10.30
2023-03-13T03:36:07.433Z,10.20
2023-03-13T03:38:35.198Z,10.20
2023-03-13T03:41:02.554Z,10.20
2023-03-13T03:43:29.842Z,10.30
2023-03-13T03:45:57.258Z,10.20
2023-03-13T03:48:24.511Z,10.30
2023-03-13T03:50:51.740Z,10.30
2023-03-13T03:53:18.946Z,10.30
2023-03-13T03:55:46.189Z,10.40
2023-03-13T03:58:13.331Z,10.30
2023-03-13T04:00:44.240Z,10.20
2023-03-13T04:03:11.900Z,10.10
2023-03-13T04:05:39.606Z,9.90
2023-03-13T04:08:07.850Z,9.70
2023-03-13T04:10:35.076Z,9.40
2023-03-13T04:13:02.310Z,9.30
2023-03-13T04:15:29.617Z,9.10
2023-03-13T04:17:56.652Z,9.10
2023-03-13T04:20:23.854Z,9.10
2023-03-13T04:22:53.049Z,9.10
2023-03-13T04:25:20.497Z,9.10
2023-03-13T04:27:47.582Z,9.10
2023-03-13T04:30:16.913Z,9.00
2023-03-13T04:32:46.317Z,9.10
2023-03-13T04:35:13.533Z,9.20
2023-03-13T04:37:40.747Z,9.30
2023-03-13T04:40:08.844Z,9.30
2023-03-13T04:42:35.901Z,9.20
2023-03-13T04:45:03.051Z,9.40
2023-03-13T04:47:30.156Z,9.60
2023-03-13T04:49:57.272Z,9.70
2023-03-13T04:52:24.370Z,9.70
2023-03-13T04:54:51.627Z,9.80
2023-03-13T04:57:18.879Z,9.80
2023-03-13T04:59:46.011Z,9.80
2023-03-13T05:02:14.090Z,9.80
2023-03-13T05:04:41.403Z,9.80
2023-03-13T05:07:08.566Z,9.90
2023-03-13T05:09:35.680Z,9.90
2023-03-13T05:12:02.813Z,9.90
2023-03-13T05:14:29.969Z,9.90
2023-03-13T05:16:57.037Z,9.90
2023-03-13T05:19:24.144Z,9.80
2023-03-13T05:21:51.467Z,9.80
2023-03-13T05:24:18.782Z,9.80
2023-03-13T05:26:45.855Z,9.90
2023-03-13T05:29:12.971Z,9.90
2023-03-13T05:31:40.003Z,9.90
2023-03-13T05:34:07.020Z,9.90
2023-03-13T05:36:34.182Z,10.00
2023-03-13T05:39:01.337Z,10.00
2023-03-13T05:41:28.407Z,10.00
2023-03-13T05:43:55.525Z,10.00
2023-03-13T05:46:22.626Z,10.10
2023-03-13T05:48:49.729Z,10.10
2023-03-13T05:51:16.835Z,10.20
2023-03-13T05:53:43.941Z,10.10
2023-03-13T05:56:11.134Z,10.20
2023-03-13T05:58:38.273Z,10.30
2023-03-13T06:01:13.169Z,10.30
2023-03-13T06:03:40.762Z,10.40
2023-03-13T06:06:07.994Z,10.40
2023-03-13T06:08:35.910Z,10.40
2023-03-13T06:11:03.861Z,10.30
2023-03-13T06:13:31.201Z,10.40
2023-03-13T06:15:58.877Z,10.40
2023-03-13T06:18:27.249Z,10.40
2023-03-13T06:21:01.815Z,10.40
2023-03-13T06:23:29.517Z,10.40
2023-03-13T06:25:56.836Z,10.50
2023-03-13T06:28:23.947Z,10.60
2023-03-13T06:30:51.513Z,10.60
2023-03-13T06:33:18.938Z,10.60
2023-03-13T06:35:56.136Z,10.50
2023-03-13T06:38:28.316Z,10.50
2023-03-13T06:40:55.426Z,10.60
2023-03-13T06:43:22.838Z,10.70
2023-03-13T06:45:50.746Z,10.80
2023-03-13T06:48:18.612Z,10.70
2023-03-13T06:50:46.003Z,10.70
2023-03-13T06:53:20.824Z,10.80
2023-03-13T06:55:49.790Z,10.90
2023-03-13T06:58:31.116Z,10.90
2023-03-13T07:01:05.493Z,10.90
2023-03-13T07:03:32.625Z,11.00
2023-03-13T07:06:00.302Z,11.00
2023-03-13T07:08:28.142Z,11.10
2023-03-13T07:11:00.457Z,11.10
2023-03-13T07:13:28.261Z,11.20
2023-03-13T07:15:59.846Z,11.20
2023-03-13T07:18:27.134Z,11.20
2023-03-13T07:20:56.445Z,11.20
2023-03-13T07:23:25.258Z,11.30
2023-03-13T07:26:18.522Z,11.30
2023-03-13T07:28:45.606Z,11.30
2023-03-13T07:31:16.856Z,11.30
2023-03-13T07:33:48.156Z,11.30
2023-03-13T07:36:16.590Z,11.30
2023-03-13T07:38:44.110Z,11.40
2023-03-13T07:41:16.224Z,11.40
2023-03-13T07:43:43.538Z,11.40
2023-03-13T07:46:15.952Z,11.40
2023-03-13T07:48:43.549Z,11.30
2023-03-13T07:51:36.770Z,11.30
2023-03-13T07:54:09.569Z,11.40
2023-03-13T07:56:38.197Z,11.40
2023-03-13T07:59:05.539Z,11.50
2023-03-13T08:01:34.280Z,11.50
2023-03-13T08:04:04.020Z,11.50
2023-03-13T08:06:35.654Z,11.50
2023-03-13T08:09:03.425Z,11.50
2023-03-13T08:11:30.532Z,11.50
2023-03-13T08:13:58.491Z,11.60
2023-03-13T08:16:32.399Z,11.60
2023-03-13T08:19:00.480Z,11.70
2023-03-13T08:21:36.243Z,11.80
2023-03-13T08:24:07.798Z,11.90
2023-03-13T08:26:37.589Z,12.00
2023-03-13T08:29:13.744Z,11.90
2023-03-13T08:31:52.719Z,12.00
2023-03-13T08:34:20.500Z,11.90
2023-03-13T08:36:48.180Z,12.00
2023-03-13T08:39:18.255Z,12.00
2023-03-13T08:41:45.677Z,12.00
2023-03-13T08:44:16.772Z,12.00
2023-03-13T08:46:45.028Z,12.00
2023-03-13T08:49:13.658Z,12.00
2023-03-13T08:51:41.128Z,12.10
2023-03-13T08:54:08.457Z,12.10
2023-03-13T08:56:36.997Z,12.20
2023-03-13T08:59:06.152Z,12.30
2023-03-13T09:01:35.861Z,12.30
2023-03-13T09:04:05.241Z,12.30
2023-03-13T09:06:36.674Z,12.30
2023-03-13T09:09:05.708Z,12.30
2023-03-13T09:11:33.475Z,12.30
2023-03-13T09:14:00.676Z,12.20
2023-03-13T09:16:31.086Z,12.30
2023-03-13T09:18:59.299Z,12.40
2023-03-13T09:21:30.316Z,12.70
2023-03-13T09:23:58.070Z,12.80
2023-03-13T09:26:28.615Z,13.00
2023-03-13T09:28:56.260Z,13.10
2023-03-13T09:31:34.454Z,13.20
2023-03-13T09:34:01.974Z,13.20
2023-03-13T09:36:29.256Z,13.10
2023-03-13T09:38:59.442Z,13.00
2023-03-13T09:41:52.520Z,12.80
2023-03-13T09:44:52.785Z,12.80
2023-03-13T09:47:43.323Z,12.80
2023-03-13T09:50:26.746Z,12.90
2023-03-13T09:53:14.600Z,13.00
2023-03-13T09:55:45.156Z,13.10
2023-03-13T09:58:21.908Z,13.20
2023-03-13T10:00:55.338Z,13.40
2023-03-13T10:03:37.976Z,13.30
2023-03-13T10:06:18.003Z,13.40
2023-03-13T10:08:45.100Z,13.40
2023-03-13T10:11:40.143Z,13.40
2023-03-13T10:14:21.232Z,13.40
2023-03-13T10:17:13.784Z,13.40
2023-03-13T10:19:43.608Z,13.70
2023-03-13T10:22:19.380Z,13.90
2023-03-13T10:25:18.068Z,14.30
2023-03-13T10:27:50.974Z,14.40
2023-03-13T10:30:31.042Z,14.40
2023-03-13T10:33:27.654Z,14.60
2023-03-13T10:36:11.228Z,14.50
2023-03-13T10:38:54.012Z,14.60
2023-03-13T10:41:33.772Z,14.60
2023-03-13T10:44:06.648Z,14.60
2023-03-13T10:46:42.106Z,14.40
2023-03-13T10:49:18.096Z,14.30
2023-03-13T10:51:53.520Z,14.20
2023-03-13T10:54:37.448Z,14.50
2023-03-13T10:57:30.578Z,14.80
2023-03-13T10:59:58.908Z,15.20
2023-03-13T11:02:36.966Z,15.10
2023-03-13T11:05:24.627Z,15.10
2023-03-13T11:07:53.526Z,15.20
2023-03-13T11:10:26.972Z,15.40
2023-03-13T11:12:56.880Z,15.70
2023-03-13T11:15:39.827Z,15.80
2023-03-13T11:18:20.934Z,15.70
2023-03-13T11:20:49.502Z,15.60
2023-03-13T11:23:27.449Z,15.70
2023-03-13T11:26:34.940Z,15.70
2023-03-13T11:29:22.243Z,15.70
2023-03-13T11:31:57.902Z,15.90
2023-03-13T11:34:40.951Z,16.20
2023-03-13T11:37:16.553Z,16.30
2023-03-13T11:40:21.403Z,16.40
2023-03-13T11:43:25.426Z,17.10
2023-03-13T11:46:36.720Z,18.10
2023-03-13T11:49:25.122Z,18.40
2023-03-13T11:52:19.394Z,18.70
2023-03-13T11:55:17.288Z,19.20
2023-03-13T11:58:09.769Z,19.60
2023-03-13T12:01:10.804Z,19.40
2023-03-13T12:04:01.235Z,18.80
2023-03-13T12:07:05.015Z,17.90
2023-03-13T12:09:42.320Z,17.40
2023-03-13T12:12:58.740Z,17.10
2023-03-13T12:15:38.970Z,16.90
2023-03-13T12:18:45.396Z,16.80
2023-03-13T12:21:38.682Z,16.90
2023-03-13T12:24:38.786Z,17.00
2023-03-13T12:27:32.735Z,17.10
2023-03-13T12:30:21.379Z,17.10
2023-03-13T12:33:16.884Z,17.20
2023-03-13T12:36:00.740Z,17.40
2023-03-13T12:39:01.000Z,17.40
2023-03-13T12:41:45.154Z,17.40
2023-03-13T12:44:19.411Z,17.40
2023-03-13T12:47:09.267Z,17.40
2023-03-13T12:50:46.007Z,17.40
2023-03-13T12:53:37.640Z,17.30
2023-03-13T12:56:29.785Z,17.30
2023-03-13T12:59:01.938Z,17.40
2023-03-13T13:01:55.885Z,17.30
2023-03-13T13:04:34.655Z,17.10
2023-03-13T13:07:24.261Z,17.10
2023-03-13T13:10:11.530Z,17.20
2023-03-13T13:12:42.100Z,17.20
2023-03-13T13:15:27.725Z,17.40
2023-03-13T13:18:14.124Z,17.60
2023-03-13T13:20:44.399Z,17.60
2023-03-13T13:23:39.429Z,17.70
2023-03-13T13:26:33.788Z,17.70
2023-03-13T13:29:14.116Z,17.70
2023-03-13T13:31:51.198Z,17.80
2023-03-13T13:34:36.293Z,17.80
2023-03-13T13:37:15.386Z,17.90
2023-03-13T13:39:48.282Z,18.10
2023-03-13T13:42:30.863Z,18.30
2023-03-13T13:45:17.443Z,19.10
2023-03-13T13:47:48.108Z,19.70
2023-03-13T13:50:25.005Z,20.00
2023-03-13T13:52:52.847Z,19.90
2023-03-13T13:55:39.782Z,20.00
2023-03-13T13:58:21.909Z,20.70
2023-03-13T14:00:58.484Z,21.10
2023-03-13T14:03:32.213Z,21.40
2023-03-13T14:06:11.708Z,21.00
2023-03-13T14:08:41.002Z,20.70
2023-03-13T14:11:38.625Z,20.30
2023-03-13T14:14:21.766Z,20.30
2023-03-13T14:16:59.403Z,19.90
2023-03-13T14:19:43.145Z,19.90
2023-03-13T14:22:14.462Z,19.80
2023-03-13T14:24:41.650Z,20.10
2023-03-13T14:27:17.347Z,20.00
2023-03-13T14:30:09.460Z,19.80
2023-03-13T14:32:37.752Z,19.50
2023-03-13T14:35:07.743Z,19.20
2023-03-13T14:37:46.468Z,19.30
2023-03-13T14:40:21.973Z,19.60
2023-03-13T14:43:28.020Z,20.00
2023-03-13T14:45:55.338Z,19.90
2023-03-13T14:48:32.161Z,19.50
2023-03-13T14:51:20.072Z,19.30
2023-03-13T14:54:01.750Z,19.20
2023-03-13T14:56:45.279Z,19.60
2023-03-13T14:59:26.112Z,20.60
2023-03-13T15:02:28.422Z,20.90
2023-03-13T15:05:04.087Z,21.50
2023-03-13T15:07:49.196Z,21.50
2023-03-13T15:10:37.232Z,21.60
2023-03-13T15:13:34.377Z,21.50
2023-03-13T15:16:03.315Z,21.70
2023-03-13T15:18:34.794Z,22.00
2023-03-13T15:21:11.100Z,22.10
2023-03-13T15:23:38.468Z,21.80
2023-03-13T15:26:06.116Z,21.50
2023-03-13T15:28:33.297Z,21.00
2023-03-13T15:31:00.781Z,20.40
2023-03-13T15:33:29.745Z,19.80
2023-03-13T15:35:57.571Z,19.40
2023-03-13T15:38:27.982Z,19.20
2023-03-13T15:40:55.339Z,19.00
2023-03-13T15:43:23.114Z,18.80
2023-03-13T15:45:52.204Z,18.60
2023-03-13T15:48:26.192Z,18.50
2023-03-13T15:51:04.017Z,18.30
2023-03-13T15:53:35.513Z,18.30
2023-03-13T15:56:12.924Z,18.20
2023-03-13T15:58:40.105Z,18.10
2023-03-13T16:01:07.523Z,18.00
2023-03-13T16:03:34.701Z,17.50
2023-03-13T16:06:01.831Z,16.70
2023-03-13T16:08:36.082Z,16.10
2023-03-13T16:11:04.498Z,15.40
2023-03-13T16:13:33.269Z,15.00
2023-03-13T16:16:02.978Z,14.50
2023-03-13T16:18:30.565Z,13.00
2023-03-13T16:20:57.619Z,12.00
2023-03-13T16:23:24.730Z,11.50
2023-03-13T16:25:51.931Z,11.20
2023-03-13T16:28:18.998Z,11.20
2023-03-13T16:30:47.875Z,11.10
2023-03-13T16:33:15.325Z,10.90
2023-03-13T16:35:42.923Z,10.90
2023-03-13T16:38:11.630Z,10.90
2023-03-13T16:40:39.103Z,10.90
2023-03-13T16:43:06.206Z,10.90
2023-03-13T16:45:33.300Z,10.90
2023-03-13T16:48:00.486Z,11.00
2023-03-13T16:50:32.365Z,11.10
2023-03-13T16:53:00.372Z,11.10
2023-03-13T16:55:36.384Z,11.30
2023-03-13T16:58:04.245Z,11.30
2023-03-13T17:00:33.563Z,11.40
2023-03-13T17:03:02.199Z,11.30
2023-03-13T17:05:29.716Z,11.20
2023-03-13T17:07:56.933Z,11.20
2023-03-13T17:10:29.495Z,11.20
2023-03-13T17:12:56.690Z,11.20
2023-03-13T17:15:25.912Z,11.20
2023-03-13T17:17:54.231Z,11.10
2023-03-13T17:20:29.476Z,11.10
2023-03-13T17:22:57.009Z,11.10
2023-03-13T17:25:25.106Z,11.10
2023-03-13T17:27:52.415Z,11.00
2023-03-13T17:30:27.510Z,11.00
2023-03-13T17:32:55.004Z,11.10
2023-03-13T17:35:23.543Z,11.20
2023-03-13T17:37:51.205Z,11.20
2023-03-13T17:40:27.370Z,11.20
2023-03-13T17:42:56.376Z,11.20
2023-03-13T17:45:24.105Z,11.30
2023-03-13T17:47:51.331Z,11.20
2023-03-13T17:50:27.600Z,11.20
2023-03-13T17:52:55.932Z,11.20
2023-03-13T17:55:23.709Z,11.10
2023-03-13T17:57:52.557Z,11.10
2023-03-13T18:00:32.020Z,11.00
2023-03-13T18:03:02.373Z,11.00
2023-03-13T18:05:29.509Z,11.00
2023-03-13T18:07:57.413Z,11.00
2023-03-13T18:10:28.210Z,10.90
2023-03-13T18:12:55.824Z,10.90
2023-03-13T18:15:25.513Z,10.90
2023-03-13T18:17:53.108Z,10.90
2023-03-13T18:20:27.091Z,10.90
2023-03-13T18:22:59.507Z,10.90
2023-03-13T18:25:28.382Z,10.90
2023-03-13T18:27:55.450Z,10.90
2023-03-13T18:30:25.603Z,10.90
2023-03-13T18:32:52.972Z,10.80
2023-03-13T18:35:20.188Z,10.80
2023-03-13T18:37:48.307Z,10.80
2023-03-13T18:40:28.080Z,10.80
2023-03-13T18:42:55.243Z,10.80
2023-03-13T18:45:26.049Z,10.80
2023-03-13T18:47:53.957Z,10.80
2023-03-13T18:50:27.767Z,10.80
2023-03-13T18:52:57.012Z,10.80
2023-03-13T18:55:27.045Z,10.90
2023-03-13T18:57:55.268Z,10.90
2023-03-13T19:00:29.776Z,10.80
2023-03-13T19:02:57.061Z,10.80
2023-03-13T19:05:24.344Z,10.80
2023-03-13T19:07:51.851Z,10.70
2023-03-13T19:10:28.971Z,10.70
2023-03-13T19:12:57.149Z,10.80
2023-03-13T19:15:27.867Z,10.80
2023-03-13T19:17:56.664Z,10.80
2023-03-13T19:20:24.642Z,10.80
2023-03-13T19:22:51.759Z,10.80
2023-03-13T19:25:19.812Z,10.80
2023-03-13T19:27:51.442Z,10.80
2023-03-13T19:30:20.350Z,10.80
2023-03-13T19:32:47.667Z,10.80
2023-03-13T19:35:18.992Z,10.80
2023-03-13T19:37:46.746Z,10.80
2023-03-13T19:40:26.670Z,10.80
2023-03-13T19:42:53.750Z,10.80
2023-03-13T19:45:22.185Z,10.80
2023-03-13T19:47:51.020Z,10.80
2023-03-13T19:50:22.851Z,10.70
2023-03-13T19:52:51.213Z,10.70
2023-03-13T19:55:18.435Z,10.60
2023-03-13T19:57:48.084Z,10.60
2023-03-13T20:00:23.751Z,10.50
2023-03-13T20:02:55.049Z,10.50
2023-03-13T20:05:23.525Z,10.40
2023-03-13T20:07:53.359Z,10.40
2023-03-13T20:10:21.880Z,10.30
2023-03-13T20:12:51.643Z,10.30
2023-03-13T20:15:18.826Z,10.20
2023-03-13T20:17:46.005Z,10.20
2023-03-13T20:20:13.865Z,10.10
2023-03-13T20:22:41.317Z,10.00
2023-03-13T20:25:09.158Z,9.80
2023-03-13T20:27:37.411Z,9.70
2023-03-13T20:30:07.277Z,9.60
2023-03-13T20:32:34.568Z,9.60
2023-03-13T20:35:02.394Z,9.60
2023-03-13T20:37:29.581Z,9.60
2023-03-13T20:39:56.712Z,9.50
2023-03-13T20:42:23.995Z,9.40
2023-03-13T20:44:51.073Z,9.40
2023-03-13T20:47:18.224Z,9.30
2023-03-13T20:49:45.330Z,9.20
2023-03-13T20:52:12.463Z,9.20
2023-03-13T20:54:39.592Z,9.20
2023-03-13T20:57:08.576Z,9.10
2023-03-13T20:59:35.784Z,9.10
2023-03-13T21:02:03.108Z,9.00
2023-03-13T21:04:30.464Z,9.00
2023-03-13T21:07:04.515Z,9.00
2023-03-13T21:09:34.081Z,9.00
2023-03-13T21:12:04.460Z,8.90
2023-03-13T21:14:33.574Z,8.80
2023-03-13T21:17:02.744Z,8.70
2023-03-13T21:19:30.147Z,8.70
2023-03-13T21:21:57.237Z,8.70
2023-03-13T21:24:24.320Z,8.60
2023-03-13T21:26:51.496Z,8.50
2023-03-13T21:29:18.676Z,8.50
2023-03-13T21:31:45.900Z,8.50
2023-03-13T21:34:13.022Z,8.50
2023-03-13T21:36:40.176Z,8.60
2023-03-13T21:39:08.508Z,8.60
2023-03-13T21:41:35.856Z,8.50
2023-03-13T21:44:03.466Z,8.50
2023-03-13T21:46:33.402Z,8.70
2023-03-13T21:49:01.446Z,8.70
2023-03-13T21:51:29.314Z,8.70
2023-03-13T21:53:56.463Z,8.90
2023-03-13T21:56:25.000Z,9.00
2023-03-13T21:58:52.182Z,9.10
2023-03-13T22:01:19.261Z,9.30
2023-03-13T22:03:46.659Z,9.40
2023-03-13T22:06:20.638Z,9.60
2023-03-13T22:08:49.245Z,9.60
2023-03-13T22:11:16.899Z,9.60
2023-03-13T22:13:44.742Z,9.70
2023-03-13T22:16:12.039Z,9.70
2023-03-13T22:18:40.990Z,9.70
2023-03-13T22:21:08.219Z,9.60
2023-03-13T22:23:35.415Z,9.60
2023-03-13T22:26:03.423Z,9.50
2023-03-13T22:28:30.886Z,9.40
2023-03-13T22:31:01.804Z,9.40
2023-03-13T22:33:29.160Z,9.50
2023-03-13T22:35:57.743Z,9.40
2023-03-13T22:38:25.050Z,9.50
2023-03-13T22:41:02.413Z,9.50
2023-03-13T22:43:31.140Z,9.40
2023-03-13T22:45:59.218Z,9.40
2023-03-13T22:48:27.883Z,9.50
2023-03-13T22:51:12.395Z,9.50
2023-03-13T22:53:41.622Z,9.70
2023-03-13T22:56:10.628Z,9.60
2023-03-13T22:58:39.266Z,9.50
2023-03-13T23:01:15.880Z,9.40
2023-03-13T23:03:43.755Z,9.50
2023-03-13T23:06:20.277Z,9.40
2023-03-13T23:08:47.615Z,9.40
2023-03-13T23:11:15.921Z,9.40
2023-03-13T23:13:43.586Z,9.40
2023-03-13T23:16:12.933Z,9.50
2023-03-13T23:18:40.465Z,9.40
2023-03-13T23:21:14.047Z,9.40
2023-03-13T23:23:42.598Z,9.60
2023-03-13T23:26:14.503Z,9.60
2023-03-13T23:28:41.946Z,9.70
2023-03-13T23:31:15.190Z,9.60
2023-03-13T23:33:42.884Z,9.60
2023-03-13T23:36:14.422Z,9.70
2023-03-13T23:38:42.308Z,9.70
2023-03-13T23:41:12.615Z,9.80
2023-03-13T23:43:41.054Z,9.80
2023-03-13T23:46:21.749Z,9.80
2023-03-13T23:48:49.045Z,9.80
2023-03-13T23:51:16.206Z,9.70
2023-03-13T23:53:43.746Z,9.70
2023-03-13T23:56:11.865Z,9.70
2023-03-13T23:58:39.407Z,9.80
